Time,TemperatureF,DewpointF,PressureIn,WindDirection,WindDirectionDegrees,WindSpeedMPH,WindSpeedGustMPH,Humidity,HourlyPrecipIn,Conditions,Clouds,dailyrainin,SoftwareType,DateUTC
2013-03-18 00:00:00,30.5,10.6,30.13,North,2,4.6,4.6,43,0.00,CLR,FEW,0.00,WeatherDisplay:10.37,2013-03-18 04:00:00,
2013-03-18 00:05:00,30.3,10.4,30.13,North,2,1.2,1.2,43,0.00,CLR,FEW,0.00,WeatherDisplay:10.37,2013-03-18 04:05:00,
2013-03-18 00:10:00,30.1,10.3,30.14,North,2,1.2,1.2,43,0.00,CLR,FEW,0.00,WeatherDisplay:10.37,2013-03-18 04:10:00,
2013-03-18 00:15:00,30.0,10.7,30.14,North,2,0.0,0.0,44,0.00,CLR,FEW,0.00,WeatherDisplay:10.37,2013-03-18 04:15:00,
2013-03-18 00:20:00,29.8,10.5,30.14,North,2,3.5,3.5,44,0.00,CLR,FEW,0.00,WeatherDisplay:10.37,2013-03-18 04:20:00,
2013-03-18 00:25:00,29.6,10.8,30.14,North,2,2.3,2.3,45,0.00,CLR,FEW,0.00,WeatherDisplay:10.37,2013-03-18 04:25:00,
2013-03-18 00:30:00,29.5,10.7,30.14,North,2,3.5,3.5,45,0.00,CLR,FEW,0.00,WeatherDisplay:10.37,2013-03-18 04:30:00,
2013-03-18 00:35:00,29.4,11.1,30.15,North,4,4.6,4.6,46,0.00,CLR,FEW,0.00,WeatherDisplay:10.37,2013-03-18 04:35:00,
2013-03-18 00:40:00,29.3,11.1,30.15,North,5,4.6,4.6,46,0.00,CLR,FEW,0.00,WeatherDisplay:10.37,2013-03-18 04:40:00,
2013-03-18 00:45:00,29.3,11.1,30.16,NNE,24,5.8,5.8,46,0.00,CLR,FEW,0.00,WeatherDisplay:10.37,2013-03-18 04:45:00,
2013-03-18 00:50:00,29.3,11.1,30.15,NNE,14,8.1,8.1,46,0.00,CLR,FEW,0.00,WeatherDisplay:10.37,2013-03-18 04:50:00,
2013-03-18 00:55:00,29.3,10.6,30.15,NNE,23,5.0,5.0,45,0.00,CLR,FEW,0.00,WeatherDisplay:10.37,2013-03-18 04:55:00,
2013-03-18 01:00:00,29.0,10.8,30.15,NNE,27,6.9,6.9,46,0.00,CLR,FEW,0.00,WeatherDisplay:10.37,2013-03-18 05:00:00,
2013-03-18 01:05:00,29.0,10.8,30.15,NNE,26,2.0,2.0,46,0.00,CLR,FEW,0.00,WeatherDisplay:10.37,2013-03-18 05:05:00,
2013-03-18 01:10:00,29.0,10.8,30.16,NNE,17,5.8,5.8,46,0.00,CLR,FEW,0.00,WeatherDisplay:10.37,2013-03-18 05:10:00,
2013-03-18 01:15:00,28.9,10.7,30.16,NNE,23,6.9,6.9,46,0.00,CLR,FEW,0.00,WeatherDisplay:10.37,2013-03-18 05:15:00,
2013-03-18 01:20:00,28.7,10.5,30.15,NNE,22,5.8,5.8,46,0.00,CLR,FEW,0.00,WeatherDisplay:10.37,2013-03-18 05:20:00,
2013-03-18 01:25:00,28.7,10.5,30.15,NNE,25,4.6,4.6,46,0.00,CLR,FEW,0.00,WeatherDisplay:10.37,2013-03-18 05:25:00,
2013-03-18 01:30:00,28.6,10.4,30.16,NE,35,3.5,3.5,46,0.00,CLR,FEW,0.00,WeatherDisplay:10.37,2013-03-18 05:30:00,
2013-03-18 01:35:00,28.5,10.3,30.16,NNE,24,5.8,5.8,46,0.00,CLR,FEW,0.00,WeatherDisplay:10.37,2013-03-18 05:35:00,
2013-03-18 01:40:00,28.4,10.2,30.16,NE,36,6.9,6.9,46,0.00,CLR,FEW,0.00,WeatherDisplay:10.37,2013-03-18 05:40:00,
2013-03-18 01:45:00,28.4,10.2,30.16,NNE,24,8.0,8.0,46,0.00,CLR,FEW,0.00,WeatherDisplay:10.37,2013-03-18 05:45:00,
2013-03-18 01:50:00,28.3,9.6,30.16,NNE,22,8.1,8.1,45,0.00,CLR,FEW,0.00,WeatherDisplay:10.37,2013-03-18 05:50:00,
2013-03-18 01:55:00,28.2,9.5,30.16,NE,38,9.2,9.2,45,0.00,CLR,FEW,0.00,WeatherDisplay:10.37,2013-03-18 05:55:00,
2013-03-18 02:00:00,28.0,9.4,30.16,NNE,18,9.2,9.2,45,0.00,CLR,FEW,0.00,WeatherDisplay:10.37,2013-03-18 06:00:00,
2013-03-18 02:05:00,28.2,9.5,30.16,NNE,21,10.4,10.4,45,0.00,CLR,FEW,0.00,WeatherDisplay:10.37,2013-03-18 06:05:00,
2013-03-18 02:10:00,28.1,9.5,30.16,NNE,30,10.4,10.4,45,0.00,CLR,FEW,0.00,WeatherDisplay:10.37,2013-03-18 06:10:00,
2013-03-18 02:15:00,28.0,9.4,30.16,NNE,15,9.2,9.2,45,0.00,CLR,FEW,0.00,WeatherDisplay:10.37,2013-03-18 06:15:00,
2013-03-18 02:20:00,27.8,9.2,30.17,NNE,23,3.5,3.5,45,0.00,CLR,FEW,0.00,WeatherDisplay:10.37,2013-03-18 06:20:00,
2013-03-18 02:25:00,27.7,9.6,30.17,NNE,27,5.8,5.8,46,0.00,CLR,FEW,0.00,WeatherDisplay:10.37,2013-03-18 06:25:00,
2013-03-18 02:30:00,27.7,9.6,30.17,North,10,8.1,8.1,46,0.00,CLR,FEW,0.00,WeatherDisplay:10.37,2013-03-18 06:30:00,
2013-03-18 02:35:00,27.6,9.5,30.18,NNE,18,6.9,6.9,46,0.00,CLR,FEW,0.00,WeatherDisplay:10.37,2013-03-18 06:35:00,
2013-03-18 02:40:00,27.5,9.4,30.18,NNE,15,8.1,8.1,46,0.00,CLR,FEW,0.00,WeatherDisplay:10.37,2013-03-18 06:40:00,
2013-03-18 02:45:00,27.4,9.8,30.18,NNE,28,5.8,5.8,47,0.00,CLR,FEW,0.00,WeatherDisplay:10.37,2013-03-18 06:45:00,
2013-03-18 02:50:00,27.3,9.2,30.18,NNE,33,4.6,4.6,46,0.00,CLR,FEW,0.00,WeatherDisplay:10.37,2013-03-18 06:50:00,
2013-03-18 02:55:00,27.3,9.7,30.18,NNE,30,10.0,10.0,47,0.00,CLR,FEW,0.00,WeatherDisplay:10.37,2013-03-18 06:55:00,
2013-03-18 03:00:00,27.1,9.0,30.19,NE,34,10.4,10.4,46,0.00,CLR,FEW,0.00,WeatherDisplay:10.37,2013-03-18 07:00:00,
2013-03-18 03:05:00,27.1,9.0,30.19,NNE,25,9.2,9.2,46,0.00,CLR,FEW,0.00,WeatherDisplay:10.37,2013-03-18 07:05:00,
2013-03-18 03:10:00,27.1,9.0,30.19,NNE,24,8.1,8.1,46,0.00,CLR,FEW,0.00,WeatherDisplay:10.37,2013-03-18 07:10:00,
2013-03-18 03:15:00,27.0,8.5,30.19,NNE,16,15.0,15.0,45,0.00,CLR,FEW,0.00,WeatherDisplay:10.37,2013-03-18 07:15:00,
2013-03-18 03:20:00,26.9,7.9,30.19,North,3,12.0,12.0,44,0.00,CLR,FEW,0.00,WeatherDisplay:10.37,2013-03-18 07:20:00,
2013-03-18 03:25:00,26.8,7.8,30.19,North,2,16.1,16.1,44,0.00,CLR,FEW,0.00,WeatherDisplay:10.37,2013-03-18 07:25:00,
2013-03-18 03:30:00,26.7,7.7,30.19,North,2,12.7,12.7,44,0.00,CLR,FEW,0.00,WeatherDisplay:10.37,2013-03-18 07:30:00,
2013-03-18 03:35:00,26.6,7.6,30.20,NNE,25,8.1,8.1,44,0.00,CLR,FEW,0.00,WeatherDisplay:10.37,2013-03-18 07:35:00,
2013-03-18 03:40:00,26.5,7.5,30.19,NNW,348,9.2,9.2,44,0.00,CLR,FEW,0.00,WeatherDisplay:10.37,2013-03-18 07:40:00,
2013-03-18 03:45:00,26.4,7.4,30.20,NNE,29,9.2,9.2,44,0.00,CLR,FEW,0.00,WeatherDisplay:10.37,2013-03-18 07:45:00,
2013-03-18 03:50:00,26.4,7.9,30.20,North,2,8.1,8.1,45,0.00,CLR,FEW,0.00,WeatherDisplay:10.37,2013-03-18 07:50:00,
2013-03-18 03:55:00,26.3,7.8,30.20,NNE,19,9.2,9.2,45,0.00,CLR,FEW,0.00,WeatherDisplay:10.37,2013-03-18 07:55:00,
2013-03-18 04:00:00,25.9,7.4,30.21,North,11,7.0,7.0,45,0.00,CLR,FEW,0.00,WeatherDisplay:10.37,2013-03-18 08:00:00,
2013-03-18 04:05:00,26.0,8.0,30.20,NNE,16,8.1,8.1,46,0.00,CLR,FEW,0.00,WeatherDisplay:10.37,2013-03-18 08:05:00,
2013-03-18 04:10:00,25.9,7.9,30.20,North,10,7.0,7.0,46,0.00,CLR,FEW,0.00,WeatherDisplay:10.37,2013-03-18 08:10:00,
2013-03-18 04:15:00,25.8,7.8,30.21,NE,39,7.0,7.0,46,0.00,CLR,FEW,0.00,WeatherDisplay:10.37,2013-03-18 08:15:00,
2013-03-18 04:20:00,25.8,7.8,30.20,North,11,6.9,6.9,46,0.00,CLR,FEW,0.00,WeatherDisplay:10.37,2013-03-18 08:20:00,
2013-03-18 04:25:00,25.7,8.2,30.21,North,8,2.3,2.3,47,0.00,CLR,FEW,0.00,WeatherDisplay:10.37,2013-03-18 08:25:00,
2013-03-18 04:30:00,25.6,8.1,30.21,NNE,20,8.1,8.1,47,0.00,CLR,FEW,0.00,WeatherDisplay:10.37,2013-03-18 08:30:00,
2013-03-18 04:35:00,25.5,8.5,30.21,NNE,31,8.1,8.1,48,0.00,CLR,FEW,0.00,WeatherDisplay:10.37,2013-03-18 08:35:00,
2013-03-18 04:40:00,25.5,8.0,30.21,NNE,28,8.1,8.1,47,0.00,CLR,FEW,0.00,WeatherDisplay:10.37,2013-03-18 08:40:00,
2013-03-18 04:45:00,25.4,8.4,30.21,NNE,24,5.8,5.8,48,0.00,CLR,FEW,0.00,WeatherDisplay:10.37,2013-03-18 08:45:00,
2013-03-18 04:50:00,25.3,8.3,30.21,North,4,8.1,8.1,48,0.00,CLR,FEW,0.00,WeatherDisplay:10.37,2013-03-18 08:50:00,
2013-03-18 04:55:00,25.2,8.2,30.22,NNE,16,5.0,5.0,48,0.00,CLR,FEW,0.00,WeatherDisplay:10.37,2013-03-18 08:55:00,
2013-03-18 05:00:00,25.0,8.0,30.21,North,1,6.9,6.9,48,0.00,CLR,FEW,0.00,WeatherDisplay:10.37,2013-03-18 09:00:00,
2013-03-18 05:05:00,25.3,8.3,30.21,North,3,6.9,6.9,48,0.00,CLR,FEW,0.00,WeatherDisplay:10.37,2013-03-18 09:05:00,
2013-03-18 05:10:00,25.1,8.1,30.21,North,9,6.9,6.9,48,0.00,CLR,FEW,0.00,WeatherDisplay:10.37,2013-03-18 09:10:00,
2013-03-18 05:15:00,25.2,8.2,30.23,NNE,15,4.6,4.6,48,0.00,CLR,FEW,0.00,WeatherDisplay:10.37,2013-03-18 09:15:00,
2013-03-18 05:20:00,24.9,8.0,30.21,North,5,6.9,6.9,48,0.00,CLR,FEW,0.00,WeatherDisplay:10.37,2013-03-18 09:20:00,
2013-03-18 05:25:00,25.1,8.1,30.23,North,7,9.2,9.2,48,0.00,CLR,FEW,0.00,WeatherDisplay:10.37,2013-03-18 09:25:00,
2013-03-18 05:30:00,24.8,8.3,30.22,North,2,4.6,4.6,49,0.00,CLR,FEW,0.00,WeatherDisplay:10.37,2013-03-18 09:30:00,
2013-03-18 05:35:00,24.9,8.4,30.22,North,356,4.6,4.6,49,0.00,CLR,FEW,0.00,WeatherDisplay:10.37,2013-03-18 09:35:00,
2013-03-18 05:40:00,24.7,8.2,30.23,NNE,22,4.6,4.6,49,0.00,CLR,FEW,0.00,WeatherDisplay:10.37,2013-03-18 09:40:00,
2013-03-18 05:45:00,24.7,8.2,30.22,NNE,18,5.8,5.8,49,0.00,CLR,FEW,0.00,WeatherDisplay:10.37,2013-03-18 09:45:00,
2013-03-18 05:50:00,24.6,8.1,30.23,NNE,19,4.6,4.6,49,0.00,CLR,FEW,0.00,WeatherDisplay:10.37,2013-03-18 09:50:00,
2013-03-18 05:55:00,24.6,8.1,30.23,NNE,16,3.5,3.5,49,0.00,CLR,FEW,0.00,WeatherDisplay:10.37,2013-03-18 09:55:00,
2013-03-18 06:00:00,24.6,8.1,30.23,NNE,15,2.3,2.3,49,0.00,CLR,FEW,0.00,WeatherDisplay:10.37,2013-03-18 10:00:00,
2013-03-18 06:05:00,24.5,8.0,30.22,North,6,3.5,3.5,49,0.00,CLR,FEW,0.00,WeatherDisplay:10.37,2013-03-18 10:05:00,
2013-03-18 06:10:00,24.5,8.0,30.22,North,8,5.8,5.8,49,0.00,CLR,FEW,0.00,WeatherDisplay:10.37,2013-03-18 10:10:00,
2013-03-18 06:15:00,24.6,8.1,30.22,North,8,3.5,3.5,49,0.00,CLR,FEW,0.00,WeatherDisplay:10.37,2013-03-18 10:15:00,
2013-03-18 06:20:00,24.5,8.5,30.23,North,10,5.0,5.0,50,0.00,CLR,FEW,0.00,WeatherDisplay:10.37,2013-03-18 10:20:00,
2013-03-18 06:25:00,24.6,8.6,30.23,North,10,2.3,2.3,50,0.00,CLR,FEW,0.00,WeatherDisplay:10.37,2013-03-18 10:25:00,
2013-03-18 06:30:00,24.6,8.6,30.23,NNE,15,2.3,2.3,50,0.00,CLR,FEW,0.00,WeatherDisplay:10.37,2013-03-18 10:30:00,
2013-03-18 06:35:00,24.7,8.2,30.24,NNE,16,2.3,2.3,49,0.00,CLR,FEW,0.00,WeatherDisplay:10.37,2013-03-18 10:35:00,
2013-03-18 06:40:00,24.6,8.1,30.24,NNE,16,2.3,2.3,49,0.00,CLR,FEW,0.00,WeatherDisplay:10.37,2013-03-18 10:40:00,
2013-03-18 06:45:00,24.7,8.2,30.24,NNE,16,2.3,2.3,49,0.00,CLR,FEW,0.00,WeatherDisplay:10.37,2013-03-18 10:45:00,
2013-03-18 06:50:00,24.7,8.2,30.23,NNE,32,4.6,4.6,49,0.00,CLR,FEW,0.00,WeatherDisplay:10.37,2013-03-18 10:50:00,
2013-03-18 06:55:00,24.7,8.2,30.23,NE,37,3.5,3.5,49,0.00,CLR,FEW,0.00,WeatherDisplay:10.37,2013-03-18 10:55:00,
2013-03-18 07:00:00,24.8,8.8,30.24,NE,47,4.0,4.0,50,0.00,CLR,FEW,0.00,WeatherDisplay:10.37,2013-03-18 11:00:00,
2013-03-18 07:05:00,24.8,8.8,30.23,NE,42,5.8,5.8,50,0.00,CLR,FEW,0.00,WeatherDisplay:10.37,2013-03-18 11:05:00,
2013-03-18 07:10:00,24.8,8.8,30.23,NE,41,4.6,4.6,50,0.00,CLR,FEW,0.00,WeatherDisplay:10.37,2013-03-18 11:10:00,
2013-03-18 07:15:00,24.6,8.6,30.23,NNE,30,5.0,5.0,50,0.00,CLR,FEW,0.00,WeatherDisplay:10.37,2013-03-18 11:15:00,
2013-03-18 07:20:00,24.9,8.9,30.23,NNE,28,5.8,5.8,50,0.00,CLR,FEW,0.00,WeatherDisplay:10.37,2013-03-18 11:20:00,
2013-03-18 07:25:00,24.6,8.6,30.22,NNE,30,5.8,5.8,50,0.00,CLR,FEW,0.00,WeatherDisplay:10.37,2013-03-18 11:25:00,
2013-03-18 07:30:00,24.9,8.9,30.22,NE,35,4.6,4.6,50,0.00,CLR,FEW,0.00,WeatherDisplay:10.37,2013-03-18 11:30:00,
2013-03-18 07:35:00,24.6,9.0,30.23,NE,41,5.8,5.8,51,0.00,CLR,FEW,0.00,WeatherDisplay:10.37,2013-03-18 11:35:00,
2013-03-18 07:40:00,24.9,8.9,30.22,NNE,29,4.6,4.6,50,0.00,CLR,FEW,0.00,WeatherDisplay:10.37,2013-03-18 11:40:00,
2013-03-18 07:45:00,25.0,9.4,30.22,NE,40,3.5,3.5,51,0.00,CLR,FEW,0.00,WeatherDisplay:10.37,2013-03-18 11:45:00,
2013-03-18 07:50:00,25.0,9.4,30.22,NE,54,3.5,3.5,51,0.00,CLR,FEW,0.00,WeatherDisplay:10.37,2013-03-18 11:50:00,
2013-03-18 07:55:00,25.0,9.0,30.22,NE,37,6.9,6.9,50,0.00,CLR,FEW,0.00,WeatherDisplay:10.37,2013-03-18 11:55:00,
2013-03-18 08:00:00,25.0,9.0,30.23,NE,51,4.0,4.0,50,0.00,CLR,FEW,0.00,WeatherDisplay:10.37,2013-03-18 12:00:00,
2013-03-18 08:06:00,25.2,9.1,30.22,NE,41,4.6,4.6,50,0.00,CLR,FEW,0.00,WeatherDisplay:10.37,2013-03-18 12:06:00,
2013-03-18 08:11:00,25.2,9.1,30.22,NE,49,4.6,4.6,50,0.00,CLR,FEW,0.00,WeatherDisplay:10.37,2013-03-18 12:11:00,
2013-03-18 08:16:00,25.2,9.1,30.23,NE,52,7.0,7.0,50,0.00,CLR,FEW,0.00,WeatherDisplay:10.37,2013-03-18 12:16:00,
2013-03-18 08:21:00,25.1,8.6,30.23,ENE,57,6.0,6.0,49,0.00,CLR,FEW,0.00,WeatherDisplay:10.37,2013-03-18 12:21:00,
2013-03-18 08:26:00,25.1,8.6,30.23,NE,56,8.1,8.1,49,0.00,CLR,FEW,0.00,WeatherDisplay:10.37,2013-03-18 12:26:00,
2013-03-18 08:31:00,25.1,8.6,30.23,NE,42,6.9,6.9,49,0.00,CLR,FEW,0.00,WeatherDisplay:10.37,2013-03-18 12:31:00,
2013-03-18 08:36:00,25.1,8.6,30.22,ENE,58,6.0,6.0,49,0.00,CLR,FEW,0.00,WeatherDisplay:10.37,2013-03-18 12:36:00,
2013-03-18 08:41:00,25.1,9.0,30.23,NE,49,3.5,3.5,50,0.00,CLR,FEW,0.00,WeatherDisplay:10.37,2013-03-18 12:41:00,
2013-03-18 08:46:00,25.1,9.0,30.23,ENE,72,4.6,4.6,50,0.00,CLR,FEW,0.00,WeatherDisplay:10.37,2013-03-18 12:46:00,
2013-03-18 08:51:00,25.1,8.6,30.22,NE,46,10.4,10.4,49,0.00,CLR,FEW,0.00,WeatherDisplay:10.37,2013-03-18 12:51:00,
2013-03-18 08:56:00,25.1,8.6,30.23,NE,52,6.9,6.9,49,0.00,CLR,FEW,0.00,WeatherDisplay:10.37,2013-03-18 12:56:00,
2013-03-18 09:01:00,25.2,8.7,30.23,ENE,64,4.6,4.6,49,0.00,CLR,FEW,0.00,WeatherDisplay:10.37,2013-03-18 13:01:00,
2013-03-18 09:07:00,25.3,8.8,30.23,NE,44,7.0,7.0,49,0.00,CLR,FEW,0.00,WeatherDisplay:10.37,2013-03-18 13:07:00,
2013-03-18 09:12:00,25.4,8.9,30.23,NE,44,6.0,6.0,49,0.00,CLR,FEW,0.00,WeatherDisplay:10.37,2013-03-18 13:12:00,
2013-03-18 09:17:00,25.4,8.9,30.23,NE,47,5.8,5.8,49,0.00,CLR,FEW,0.00,WeatherDisplay:10.37,2013-03-18 13:17:00,
2013-03-18 09:22:00,25.4,8.4,30.22,NE,55,6.9,6.9,48,0.00,CLR,FEW,0.00,WeatherDisplay:10.37,2013-03-18 13:22:00,
2013-03-18 09:27:00,25.5,8.5,30.22,NE,47,8.1,8.1,48,0.00,CLR,FEW,0.00,WeatherDisplay:10.37,2013-03-18 13:27:00,
2013-03-18 09:32:00,25.6,8.6,30.23,NNE,22,6.9,6.9,48,0.00,CLR,FEW,0.00,WeatherDisplay:10.37,2013-03-18 13:32:00,
2013-03-18 09:37:00,25.8,8.8,30.22,NE,34,8.1,8.1,48,0.00,CLR,FEW,0.00,WeatherDisplay:10.37,2013-03-18 13:37:00,
2013-03-18 09:42:00,25.8,8.3,30.21,NE,37,2.3,2.3,47,0.00,CLR,FEW,0.00,WeatherDisplay:10.37,2013-03-18 13:42:00,
2013-03-18 09:47:00,25.9,8.4,30.21,NE,46,5.8,5.8,47,0.00,CLR,FEW,0.00,WeatherDisplay:10.37,2013-03-18 13:47:00,
2013-03-18 09:52:00,26.0,8.5,30.21,NE,43,6.9,6.9,47,0.00,CLR,FEW,0.00,WeatherDisplay:10.37,2013-03-18 13:52:00,
2013-03-18 09:57:00,26.2,8.7,30.21,ENE,78,4.6,4.6,47,0.00,CLR,FEW,0.00,WeatherDisplay:10.37,2013-03-18 13:57:00,
2013-03-18 10:02:00,26.4,8.9,30.22,NE,54,3.5,3.5,47,0.00,CLR,FEW,0.00,WeatherDisplay:10.37,2013-03-18 14:02:00,
2013-03-18 10:07:00,26.6,9.1,30.21,ENE,69,3.5,3.5,47,0.00,CLR,FEW,0.00,WeatherDisplay:10.37,2013-03-18 14:07:00,
2013-03-18 10:12:00,26.8,8.8,30.21,NE,48,7.0,7.0,46,0.00,CLR,FEW,0.00,WeatherDisplay:10.37,2013-03-18 14:12:00,
2013-03-18 10:17:00,27.1,9.0,30.21,ENE,72,6.9,6.9,46,0.00,CLR,FEW,0.00,WeatherDisplay:10.37,2013-03-18 14:17:00,
2013-03-18 10:22:00,27.4,9.3,30.21,East,94,6.9,6.9,46,0.00,CLR,FEW,0.00,WeatherDisplay:10.37,2013-03-18 14:22:00,
2013-03-18 10:27:00,27.8,9.7,30.21,ENE,62,4.6,4.6,46,0.00,CLR,FEW,0.00,WeatherDisplay:10.37,2013-03-18 14:27:00,
2013-03-18 10:32:00,28.1,9.9,30.21,East,87,6.0,6.0,46,0.00,CLR,FEW,0.00,WeatherDisplay:10.37,2013-03-18 14:32:00,
2013-03-18 10:37:00,28.4,9.2,30.21,East,94,10.4,10.4,44,0.00,CLR,FEW,0.00,WeatherDisplay:10.37,2013-03-18 14:37:00,
2013-03-18 10:42:00,28.4,9.2,30.21,ENE,64,6.0,6.0,44,0.00,CLR,FEW,0.00,WeatherDisplay:10.37,2013-03-18 14:42:00,
2013-03-18 10:47:00,28.3,9.1,30.20,East,82,6.9,6.9,44,0.00,CLR,FEW,0.00,WeatherDisplay:10.37,2013-03-18 14:47:00,
2013-03-18 10:52:00,28.5,9.8,30.20,East,85,6.9,6.9,45,0.00,CLR,FEW,0.00,WeatherDisplay:10.37,2013-03-18 14:52:00,
2013-03-18 10:57:00,28.9,10.2,30.20,ESE,110,8.1,8.1,45,0.00,CLR,FEW,0.00,WeatherDisplay:10.37,2013-03-18 14:57:00,
2013-03-18 11:02:00,28.7,10.0,30.20,ENE,63,4.6,4.6,45,0.00,CLR,FEW,0.00,WeatherDisplay:10.37,2013-03-18 15:02:00,
2013-03-18 11:07:00,28.9,10.2,30.20,ESE,109,10.4,10.4,45,0.00,CLR,FEW,0.00,WeatherDisplay:10.37,2013-03-18 15:07:00,
2013-03-18 11:12:00,28.8,10.1,30.20,East,101,6.9,6.9,45,0.00,CLR,FEW,0.00,WeatherDisplay:10.37,2013-03-18 15:12:00,
2013-03-18 11:17:00,29.2,10.5,30.20,ESE,108,9.2,9.2,45,0.00,CLR,FEW,0.00,WeatherDisplay:10.37,2013-03-18 15:17:00,
2013-03-18 11:22:00,29.2,10.5,30.19,ESE,116,9.2,9.2,45,0.00,CLR,FEW,0.00,WeatherDisplay:10.37,2013-03-18 15:22:00,
2013-03-18 11:28:00,29.1,10.4,30.19,East,99,9.2,9.2,45,0.00,CLR,FEW,0.00,WeatherDisplay:10.37,2013-03-18 15:28:00,
2013-03-18 11:33:00,29.1,10.9,30.20,East,92,7.0,7.0,46,0.00,CLR,FEW,0.00,WeatherDisplay:10.37,2013-03-18 15:33:00,
2013-03-18 11:38:00,29.3,11.5,30.19,East,83,11.5,11.5,47,0.00,CLR,FEW,0.00,WeatherDisplay:10.37,2013-03-18 15:38:00,
2013-03-18 11:43:00,29.6,11.8,30.19,East,88,6.0,6.0,47,0.00,CLR,FEW,0.00,WeatherDisplay:10.37,2013-03-18 15:43:00,
2013-03-18 11:48:00,29.7,11.9,30.19,ENE,63,10.4,10.4,47,0.00,CLR,FEW,0.00,WeatherDisplay:10.37,2013-03-18 15:48:00,
2013-03-18 11:53:00,29.9,12.6,30.19,East,99,6.0,6.0,48,0.00,CLR,FEW,0.00,WeatherDisplay:10.37,2013-03-18 15:53:00,
2013-03-18 11:58:00,30.4,13.0,30.19,SE,128,11.5,11.5,48,0.00,CLR,FEW,0.00,WeatherDisplay:10.37,2013-03-18 15:58:00,
2013-03-18 12:03:00,30.4,13.0,30.19,ESE,121,9.2,9.2,48,0.00,CLR,FEW,0.00,WeatherDisplay:10.37,2013-03-18 16:03:00,
2013-03-18 12:08:00,30.4,13.0,30.19,East,100,10.4,10.4,48,0.00,CLR,FEW,0.00,WeatherDisplay:10.37,2013-03-18 16:08:00,
2013-03-18 12:13:00,30.3,13.4,30.18,ESE,104,9.2,9.2,49,0.00,CLR,FEW,0.00,WeatherDisplay:10.37,2013-03-18 16:13:00,
2013-03-18 12:18:00,30.5,14.0,30.18,SE,137,8.1,8.1,50,0.00,CLR,FEW,0.00,WeatherDisplay:10.37,2013-03-18 16:18:00,
2013-03-18 12:23:00,30.6,13.7,30.18,SE,144,5.8,5.8,49,0.00,CLR,FEW,0.00,WeatherDisplay:10.37,2013-03-18 16:23:00,
2013-03-18 12:28:00,30.8,13.9,30.18,ESE,106,3.5,3.5,49,0.00,CLR,FEW,0.00,WeatherDisplay:10.37,2013-03-18 16:28:00,
2013-03-18 12:33:00,30.9,14.0,30.18,ESE,107,8.1,8.1,49,0.00,CLR,FEW,0.00,WeatherDisplay:10.37,2013-03-18 16:33:00,
2013-03-18 12:38:00,30.9,14.0,30.18,East,82,10.4,10.4,49,0.00,CLR,FEW,0.00,WeatherDisplay:10.37,2013-03-18 16:38:00,
2013-03-18 12:43:00,30.9,14.4,30.18,ENE,69,6.9,6.9,50,0.00,CLR,FEW,0.00,WeatherDisplay:10.37,2013-03-18 16:43:00,
2013-03-18 12:48:00,31.0,14.5,30.17,NE,55,5.0,5.0,50,0.00,CLR,FEW,0.00,WeatherDisplay:10.37,2013-03-18 16:48:00,
2013-03-18 12:53:00,31.4,14.9,30.17,ESE,102,3.5,3.5,50,0.00,CLR,FEW,0.00,WeatherDisplay:10.37,2013-03-18 16:53:00,
2013-03-18 12:58:00,31.6,15.5,30.17,ENE,74,10.4,10.4,51,0.00,CLR,FEW,0.00,WeatherDisplay:10.37,2013-03-18 16:58:00,
2013-03-18 13:03:00,31.5,15.0,30.17,East,99,4.6,4.6,50,0.00,CLR,FEW,0.00,WeatherDisplay:10.37,2013-03-18 17:03:00,
2013-03-18 13:08:00,31.6,15.5,30.16,ESE,102,5.8,5.8,51,0.00,CLR,FEW,0.00,WeatherDisplay:10.37,2013-03-18 17:08:00,
2013-03-18 13:13:00,31.5,15.0,30.16,ENE,74,9.2,9.2,50,0.00,CLR,FEW,0.00,WeatherDisplay:10.37,2013-03-18 17:13:00,
2013-03-18 13:18:00,31.4,14.9,30.15,East,80,8.1,8.1,50,0.00,CLR,FEW,0.00,WeatherDisplay:10.37,2013-03-18 17:18:00,
2013-03-18 13:23:00,31.4,14.9,30.15,East,81,10.4,10.4,50,0.00,CLR,FEW,0.00,WeatherDisplay:10.37,2013-03-18 17:23:00,
2013-03-18 13:28:00,31.6,15.1,30.14,East,86,9.2,9.2,50,0.00,CLR,FEW,0.00,WeatherDisplay:10.37,2013-03-18 17:28:00,
2013-03-18 13:33:00,31.5,15.4,30.14,ESE,107,8.1,8.1,51,0.00,CLR,FEW,0.00,WeatherDisplay:10.37,2013-03-18 17:33:00,
2013-03-18 13:38:00,31.8,15.7,30.14,East,80,4.6,4.6,51,0.00,CLR,FEW,0.00,WeatherDisplay:10.37,2013-03-18 17:38:00,
2013-03-18 13:43:00,32.2,16.1,30.14,ESE,105,5.0,5.0,51,0.00,CLR,FEW,0.00,WeatherDisplay:10.37,2013-03-18 17:43:00,
2013-03-18 13:48:00,32.2,15.6,30.14,ENE,77,9.2,9.2,50,0.00,CLR,FEW,0.00,WeatherDisplay:10.37,2013-03-18 17:48:00,
2013-03-18 13:53:00,31.9,14.9,30.12,ENE,70,10.4,10.4,49,0.00,CLR,FEW,0.00,WeatherDisplay:10.37,2013-03-18 17:53:00,
2013-03-18 13:58:00,31.8,15.3,30.11,ENE,76,7.0,7.0,50,0.00,CLR,FEW,0.00,WeatherDisplay:10.37,2013-03-18 17:58:00,
2013-03-18 14:03:00,32.1,15.5,30.11,ESE,110,10.4,10.4,50,0.00,CLR,FEW,0.00,WeatherDisplay:10.37,2013-03-18 18:03:00,
2013-03-18 14:08:00,32.2,15.6,30.11,East,89,6.9,6.9,50,0.00,CLR,FEW,0.00,WeatherDisplay:10.37,2013-03-18 18:08:00,
2013-03-18 14:13:00,32.3,15.7,30.11,ENE,72,12.0,12.0,50,0.00,CLR,FEW,0.00,WeatherDisplay:10.37,2013-03-18 18:13:00,
2013-03-18 14:18:00,32.4,15.8,30.10,ENE,71,6.0,6.0,50,0.00,CLR,FEW,0.00,WeatherDisplay:10.37,2013-03-18 18:18:00,
2013-03-18 14:23:00,32.6,16.0,30.10,East,100,8.1,8.1,50,0.00,CLR,FEW,0.00,WeatherDisplay:10.37,2013-03-18 18:23:00,
2013-03-18 14:28:00,32.6,15.5,30.10,ENE,73,10.4,10.4,49,0.00,CLR,FEW,0.00,WeatherDisplay:10.37,2013-03-18 18:28:00,
2013-03-18 14:33:00,32.3,15.3,30.09,East,85,9.2,9.2,49,0.00,CLR,FEW,0.00,WeatherDisplay:10.37,2013-03-18 18:33:00,
2013-03-18 14:38:00,32.2,15.6,30.09,East,80,11.5,11.5,50,0.00,CLR,FEW,0.00,WeatherDisplay:10.37,2013-03-18 18:38:00,
2013-03-18 14:43:00,32.3,15.7,30.09,East,87,11.5,11.5,50,0.00,CLR,FEW,0.00,WeatherDisplay:10.37,2013-03-18 18:43:00,
2013-03-18 14:48:00,32.4,15.8,30.09,East,83,10.4,10.4,50,0.00,CLR,FEW,0.00,WeatherDisplay:10.37,2013-03-18 18:48:00,
2013-03-18 14:53:00,32.2,15.6,30.08,ENE,70,6.9,6.9,50,0.00,CLR,FEW,0.00,WeatherDisplay:10.37,2013-03-18 18:53:00,
2013-03-18 14:58:00,32.4,15.8,30.08,ENE,66,9.2,9.2,50,0.00,CLR,FEW,0.00,WeatherDisplay:10.37,2013-03-18 18:58:00,
2013-03-18 15:03:00,32.3,15.7,30.08,ENE,73,11.5,11.5,50,0.00,CLR,FEW,0.00,WeatherDisplay:10.37,2013-03-18 19:03:00,
2013-03-18 15:08:00,32.3,15.7,30.08,ESE,102,6.9,6.9,50,0.00,CLR,FEW,0.00,WeatherDisplay:10.37,2013-03-18 19:08:00,
2013-03-18 15:13:00,32.3,15.7,30.07,ENE,72,8.1,8.1,50,0.00,CLR,FEW,0.00,WeatherDisplay:10.37,2013-03-18 19:13:00,
2013-03-18 15:18:00,32.5,15.9,30.07,ESE,108,11.5,11.5,50,0.00,CLR,FEW,0.00,WeatherDisplay:10.37,2013-03-18 19:18:00,
2013-03-18 15:23:00,32.4,15.8,30.07,ENE,78,8.1,8.1,50,0.00,CLR,FEW,0.00,WeatherDisplay:10.37,2013-03-18 19:23:00,
2013-03-18 15:28:00,32.4,15.8,30.07,ESE,106,11.5,11.5,50,0.00,CLR,FEW,0.00,WeatherDisplay:10.37,2013-03-18 19:28:00,
2013-03-18 15:33:00,32.6,16.0,30.07,ESE,103,9.2,9.2,50,0.00,CLR,FEW,0.00,WeatherDisplay:10.37,2013-03-18 19:33:00,
2013-03-18 15:38:00,32.6,16.0,30.07,East,93,5.8,5.8,50,0.00,CLR,FEW,0.00,WeatherDisplay:10.37,2013-03-18 19:38:00,
2013-03-18 15:43:00,32.5,15.9,30.07,SE,124,11.5,11.5,50,0.00,CLR,FEW,0.00,WeatherDisplay:10.37,2013-03-18 19:43:00,
2013-03-18 15:48:00,32.7,16.5,30.07,ESE,109,10.4,10.4,51,0.00,CLR,FEW,0.00,WeatherDisplay:10.37,2013-03-18 19:48:00,
2013-03-18 15:53:00,32.7,16.5,30.07,ESE,122,10.4,10.4,51,0.00,CLR,FEW,0.00,WeatherDisplay:10.37,2013-03-18 19:53:00,
2013-03-18 15:58:00,32.7,16.1,30.07,East,89,10.4,10.4,50,0.00,CLR,FEW,0.00,WeatherDisplay:10.37,2013-03-18 19:58:00,
2013-03-18 16:03:00,32.4,16.3,30.07,East,101,8.1,8.1,51,0.00,CLR,FEW,0.00,WeatherDisplay:10.37,2013-03-18 20:03:00,
2013-03-18 16:08:00,32.4,16.3,30.07,ENE,77,9.2,9.2,51,0.00,CLR,FEW,0.00,WeatherDisplay:10.37,2013-03-18 20:08:00,
2013-03-18 16:13:00,32.3,16.2,30.06,ENE,76,8.1,8.1,51,0.00,CLR,FEW,0.00,WeatherDisplay:10.37,2013-03-18 20:13:00,
2013-03-18 16:18:00,32.4,16.7,30.06,ENE,68,8.1,8.1,52,0.00,CLR,FEW,0.00,WeatherDisplay:10.37,2013-03-18 20:18:00,
2013-03-18 16:23:00,32.3,16.2,30.06,East,80,10.4,10.4,51,0.00,CLR,FEW,0.00,WeatherDisplay:10.37,2013-03-18 20:23:00,
2013-03-18 16:28:00,32.1,16.4,30.06,ENE,73,11.5,11.5,52,0.00,CLR,FEW,0.00,WeatherDisplay:10.37,2013-03-18 20:28:00,
2013-03-18 16:33:00,32.0,15.9,30.05,East,95,12.0,12.0,51,0.00,CLR,FEW,0.00,WeatherDisplay:10.37,2013-03-18 20:33:00,
2013-03-18 16:38:00,31.9,16.2,30.05,East,90,6.9,6.9,52,0.00,CLR,FEW,0.00,WeatherDisplay:10.37,2013-03-18 20:38:00,
2013-03-18 16:43:00,32.0,16.3,30.05,ESE,107,8.1,8.1,52,0.00,CLR,FEW,0.00,WeatherDisplay:10.37,2013-03-18 20:43:00,
2013-03-18 16:48:00,31.9,16.2,30.05,East,90,11.5,11.5,52,0.00,CLR,FEW,0.00,WeatherDisplay:10.37,2013-03-18 20:48:00,
2013-03-18 16:53:00,31.8,16.2,30.04,East,80,9.2,9.2,52,0.00,CLR,FEW,0.00,WeatherDisplay:10.37,2013-03-18 20:53:00,
2013-03-18 16:58:00,31.7,16.1,30.03,East,97,15.0,15.0,52,0.00,CLR,FEW,0.00,WeatherDisplay:10.37,2013-03-18 20:58:00,
2013-03-18 17:03:00,31.5,16.7,30.03,East,89,11.5,11.5,54,0.00,CLR,FEW,0.00,WeatherDisplay:10.37,2013-03-18 21:03:00,
2013-03-18 17:08:00,31.2,16.9,30.03,ENE,75,8.1,8.1,55,0.00,CLR,FEW,0.00,WeatherDisplay:10.37,2013-03-18 21:08:00,
2013-03-18 17:13:00,30.9,17.4,30.03,ENE,72,13.8,13.8,57,0.00,CLR,FEW,0.00,WeatherDisplay:10.37,2013-03-18 21:13:00,
2013-03-18 17:18:00,30.4,17.8,30.03,NE,52,9.2,9.2,59,0.00,CLR,FEW,0.00,WeatherDisplay:10.37,2013-03-18 21:18:00,
2013-03-18 17:23:00,30.0,18.2,30.03,ENE,78,6.9,6.9,61,0.00,CLR,FEW,0.00,WeatherDisplay:10.37,2013-03-18 21:23:00,
2013-03-18 17:28:00,29.7,18.3,30.03,ENE,71,12.7,12.7,62,0.00,CLR,FEW,0.00,WeatherDisplay:10.37,2013-03-18 21:28:00,
2013-03-18 17:33:00,28.9,18.2,30.03,East,91,11.5,11.5,64,0.00,CLR,FEW,0.00,WeatherDisplay:10.37,2013-03-18 21:33:00,
2013-03-18 17:38:00,28.6,18.7,30.03,ESE,110,11.5,11.5,66,0.00,CLR,FEW,0.00,WeatherDisplay:10.37,2013-03-18 21:38:00,
2013-03-18 17:43:00,28.4,18.8,30.03,ENE,74,9.2,9.2,67,0.00,CLR,FEW,0.00,WeatherDisplay:10.37,2013-03-18 21:43:00,
2013-03-18 17:48:00,28.2,19.3,30.03,East,91,6.9,6.9,69,0.00,CLR,FEW,0.00,WeatherDisplay:10.37,2013-03-18 21:48:00,
2013-03-18 17:53:00,28.0,19.5,30.03,ENE,70,6.9,6.9,70,0.00,CLR,FEW,0.00,WeatherDisplay:10.37,2013-03-18 21:53:00,
2013-03-18 17:58:00,27.7,19.5,30.02,ENE,78,11.0,11.0,71,0.00,CLR,FEW,0.00,WeatherDisplay:10.37,2013-03-18 21:58:00,
2013-03-18 18:03:00,27.4,19.9,30.02,East,90,8.1,8.1,73,0.00,CLR,FEW,0.00,WeatherDisplay:10.37,2013-03-18 22:03:00,
2013-03-18 18:08:00,27.4,20.2,30.01,ENE,69,9.2,9.2,74,0.00,CLR,FEW,0.00,WeatherDisplay:10.37,2013-03-18 22:08:00,
2013-03-18 18:13:00,27.5,20.9,30.02,East,86,9.2,9.2,76,0.00,CLR,FEW,0.00,WeatherDisplay:10.37,2013-03-18 22:13:00,
2013-03-18 18:18:00,27.3,21.0,30.01,East,89,10.4,10.4,77,0.00,CLR,FEW,0.00,WeatherDisplay:10.37,2013-03-18 22:18:00,
2013-03-18 18:23:00,27.3,21.6,30.00,ENE,78,8.0,8.0,79,0.00,CLR,FEW,0.00,WeatherDisplay:10.37,2013-03-18 22:23:00,
2013-03-18 18:28:00,27.3,21.6,29.99,ENE,78,11.5,11.5,79,0.00,CLR,FEW,0.00,WeatherDisplay:10.37,2013-03-18 22:28:00,
2013-03-18 18:33:00,27.2,21.8,30.00,ENE,64,5.8,5.8,80,0.00,CLR,FEW,0.00,WeatherDisplay:10.37,2013-03-18 22:33:00,
2013-03-18 18:38:00,27.4,22.3,30.00,East,81,10.4,10.4,81,0.00,CLR,FEW,0.00,WeatherDisplay:10.37,2013-03-18 22:38:00,
2013-03-18 18:43:00,27.3,22.5,29.99,ENE,65,8.1,8.1,82,0.00,CLR,FEW,0.00,WeatherDisplay:10.37,2013-03-18 22:43:00,
2013-03-18 18:48:00,27.3,23.1,29.99,ENE,78,8.1,8.1,84,0.00,CLR,FEW,0.00,WeatherDisplay:10.37,2013-03-18 22:48:00,
2013-03-18 18:53:00,27.3,23.4,29.99,ENE,63,5.8,5.8,85,0.00,CLR,FEW,0.00,WeatherDisplay:10.37,2013-03-18 22:53:00,
2013-03-18 18:58:00,27.3,23.9,29.99,ENE,65,11.5,11.5,87,0.00,CLR,FEW,0.00,WeatherDisplay:10.37,2013-03-18 22:58:00,
2013-03-18 19:03:00,27.3,24.2,29.99,ENE,65,10.4,10.4,88,0.00,CLR,FEW,0.00,WeatherDisplay:10.37,2013-03-18 23:03:00,
2013-03-18 19:08:00,27.3,24.8,29.99,ENE,57,9.2,9.2,90,0.00,CLR,FEW,0.00,WeatherDisplay:10.37,2013-03-18 23:08:00,
2013-03-18 19:13:00,27.4,25.1,29.99,NE,55,7.0,7.0,91,0.00,CLR,FEW,0.00,WeatherDisplay:10.37,2013-03-18 23:13:00,
2013-03-18 19:18:00,27.5,25.7,29.99,NE,41,8.1,8.1,93,0.00,CLR,FEW,0.00,WeatherDisplay:10.37,2013-03-18 23:18:00,
2013-03-18 19:23:00,27.6,26.1,30.00,NE,52,4.0,4.0,94,0.00,CLR,FEW,0.00,WeatherDisplay:10.37,2013-03-18 23:23:00,
2013-03-18 19:28:00,27.6,26.6,30.00,NE,40,5.8,5.8,96,0.00,CLR,FEW,0.00,WeatherDisplay:10.37,2013-03-18 23:28:00,
2013-03-18 19:33:00,27.7,26.7,29.99,East,84,8.1,8.1,96,0.00,CLR,FEW,0.00,WeatherDisplay:10.37,2013-03-18 23:33:00,
2013-03-18 19:38:00,27.8,27.3,29.99,ENE,64,10.4,10.4,98,0.00,CLR,FEW,0.00,WeatherDisplay:10.37,2013-03-18 23:38:00,
2013-03-18 19:43:00,27.8,27.6,29.99,East,81,5.8,5.8,99,0.00,CLR,FEW,0.00,WeatherDisplay:10.37,2013-03-18 23:43:00,
2013-03-18 19:48:00,27.8,27.8,29.99,ENE,66,8.0,8.0,100,0.00,,FEW,0.00,WeatherDisplay:10.37,2013-03-18 23:48:00,
2013-03-18 19:53:00,27.9,27.9,29.99,ENE,62,6.9,6.9,100,0.00,,FEW,0.00,WeatherDisplay:10.37,2013-03-18 23:53:00,
2013-03-18 19:58:00,27.9,27.9,29.99,NE,48,9.2,9.2,100,0.00,,FEW,0.00,WeatherDisplay:10.37,2013-03-18 23:58:00,
2013-03-18 20:03:00,28.0,28.0,29.98,ENE,64,6.0,6.0,100,0.00,,FEW,0.00,WeatherDisplay:10.37,2013-03-19 00:03:00,
2013-03-18 20:08:00,28.0,28.0,29.98,East,79,10.4,10.4,100,0.00,,FEW,0.00,WeatherDisplay:10.37,2013-03-19 00:08:00,
2013-03-18 20:13:00,28.1,28.1,29.98,ENE,59,8.1,8.1,100,0.00,,FEW,0.00,WeatherDisplay:10.37,2013-03-19 00:13:00,
2013-03-18 20:18:00,28.1,28.1,29.98,ENE,60,5.0,5.0,100,0.00,,FEW,0.00,WeatherDisplay:10.37,2013-03-19 00:18:00,
2013-03-18 20:23:00,28.1,28.1,29.97,NE,54,6.9,6.9,100,0.00,,FEW,0.00,WeatherDisplay:10.37,2013-03-19 00:23:00,
2013-03-18 20:28:00,28.1,28.1,29.97,ENE,64,4.6,4.6,100,0.00,,FEW,0.00,WeatherDisplay:10.37,2013-03-19 00:28:00,
2013-03-18 20:33:00,28.2,28.2,29.97,ENE,66,4.6,4.6,100,0.00,,FEW,0.00,WeatherDisplay:10.37,2013-03-19 00:33:00,
2013-03-18 20:38:00,28.2,28.2,29.97,NE,42,6.0,6.0,100,0.00,,FEW,0.00,WeatherDisplay:10.37,2013-03-19 00:38:00,
2013-03-18 20:43:00,28.3,28.3,29.97,ENE,68,3.5,3.5,100,0.00,,FEW,0.00,WeatherDisplay:10.37,2013-03-19 00:43:00,
2013-03-18 20:48:00,28.3,28.3,29.97,ENE,58,4.6,4.6,100,0.00,,FEW,0.00,WeatherDisplay:10.37,2013-03-19 00:48:00,
2013-03-18 20:53:00,28.4,28.4,29.96,NE,48,4.6,4.6,100,0.00,,FEW,0.00,WeatherDisplay:10.37,2013-03-19 00:53:00,
2013-03-18 20:58:00,28.5,28.5,29.96,ENE,72,6.9,6.9,100,0.00,,FEW,0.00,WeatherDisplay:10.37,2013-03-19 00:58:00,
2013-03-18 21:03:00,28.7,28.7,29.96,East,89,10.4,10.4,100,0.00,,FEW,0.00,WeatherDisplay:10.37,2013-03-19 01:03:00,
2013-03-18 21:08:00,28.7,28.7,29.96,NE,38,10.4,10.4,100,0.00,CLR,FEW,0.00,WeatherDisplay:10.37,2013-03-19 01:08:00,
2013-03-18 21:13:00,28.9,28.9,29.96,ENE,72,8.1,8.1,100,0.00,CLR,FEW,0.00,WeatherDisplay:10.37,2013-03-19 01:13:00,
2013-03-18 21:18:00,28.9,28.9,29.94,ENE,66,11.5,11.5,100,0.00,CLR,FEW,0.00,WeatherDisplay:10.37,2013-03-19 01:18:00,
2013-03-18 21:23:00,29.0,29.0,29.94,ENE,61,8.0,8.0,100,0.00,CLR,FEW,0.00,WeatherDisplay:10.37,2013-03-19 01:23:00,
2013-03-18 21:28:00,29.1,29.1,29.94,ENE,77,9.0,9.0,100,0.00,CLR,FEW,0.00,WeatherDisplay:10.37,2013-03-19 01:28:00,
2013-03-18 21:33:00,29.2,29.2,29.94,ENE,68,11.5,11.5,100,0.00,CLR,FEW,0.00,WeatherDisplay:10.37,2013-03-19 01:33:00,
2013-03-18 21:38:00,29.2,29.2,29.94,NE,45,7.0,7.0,100,0.00,CLR,FEW,0.00,WeatherDisplay:10.37,2013-03-19 01:38:00,
2013-03-18 21:43:00,29.3,29.3,29.95,ENE,71,5.8,5.8,100,0.00,,FEW,0.00,WeatherDisplay:10.37,2013-03-19 01:43:00,
2013-03-18 21:48:00,29.2,29.2,29.94,NE,47,6.9,6.9,100,0.00,,FEW,0.00,WeatherDisplay:10.37,2013-03-19 01:48:00,
2013-03-18 21:53:00,29.2,29.2,29.94,ENE,65,5.8,5.8,100,0.00,,FEW,0.00,WeatherDisplay:10.37,2013-03-19 01:53:00,
2013-03-18 21:58:00,29.3,29.3,29.94,NE,46,6.9,6.9,100,0.00,,FEW,0.00,WeatherDisplay:10.37,2013-03-19 01:58:00,
2013-03-18 22:03:00,29.3,29.3,29.93,ENE,63,9.2,9.2,100,0.00,,FEW,0.00,WeatherDisplay:10.37,2013-03-19 02:03:00,
2013-03-18 22:08:00,29.3,29.3,29.93,NE,40,8.1,8.1,100,0.00,,FEW,0.00,WeatherDisplay:10.37,2013-03-19 02:08:00,
2013-03-18 22:13:00,29.3,29.3,29.93,ENE,59,6.9,6.9,100,0.00,,FEW,0.00,WeatherDisplay:10.37,2013-03-19 02:13:00,
2013-03-18 22:18:00,29.3,29.3,29.93,NE,53,4.6,4.6,100,0.00,,FEW,0.00,WeatherDisplay:10.37,2013-03-19 02:18:00,
2013-03-18 22:23:00,29.3,29.3,29.93,ENE,60,9.2,9.2,100,0.00,,FEW,0.00,WeatherDisplay:10.37,2013-03-19 02:23:00,
2013-03-18 22:28:00,29.3,29.3,29.92,ENE,71,10.4,10.4,100,0.00,,FEW,0.00,WeatherDisplay:10.37,2013-03-19 02:28:00,
2013-03-18 22:33:00,29.4,29.4,29.92,ENE,67,10.4,10.4,100,0.00,,FEW,0.00,WeatherDisplay:10.37,2013-03-19 02:33:00,
2013-03-18 22:38:00,29.4,29.4,29.92,ENE,63,7.0,7.0,100,0.00,CLR,FEW,0.00,WeatherDisplay:10.37,2013-03-19 02:38:00,
2013-03-18 22:43:00,29.4,29.4,29.91,ENE,59,11.5,11.5,100,0.00,CLR,FEW,0.00,WeatherDisplay:10.37,2013-03-19 02:43:00,
2013-03-18 22:48:00,29.4,29.4,29.92,ENE,61,6.0,6.0,100,0.00,CLR,FEW,0.00,WeatherDisplay:10.37,2013-03-19 02:48:00,
2013-03-18 22:53:00,29.4,29.4,29.91,NE,47,4.6,4.6,100,0.00,,FEW,0.00,WeatherDisplay:10.37,2013-03-19 02:53:00,
2013-03-18 22:58:00,29.3,29.3,29.91,ENE,70,12.7,12.7,100,0.00,,FEW,0.00,WeatherDisplay:10.37,2013-03-19 02:58:00,
2013-03-18 23:03:00,29.5,29.5,29.90,ENE,60,9.2,9.2,100,0.00,,FEW,0.00,WeatherDisplay:10.37,2013-03-19 03:03:00,
2013-03-18 23:08:00,29.5,29.5,29.90,NE,52,5.8,5.8,100,0.00,,FEW,0.00,WeatherDisplay:10.37,2013-03-19 03:08:00,
2013-03-18 23:13:00,29.5,29.5,29.90,NE,48,5.8,5.8,100,0.00,,FEW,0.00,WeatherDisplay:10.37,2013-03-19 03:13:00,
2013-03-18 23:18:00,29.7,29.7,29.90,NE,53,4.6,4.6,100,0.00,,FEW,0.00,WeatherDisplay:10.37,2013-03-19 03:18:00,
2013-03-18 23:23:00,29.4,29.4,29.89,NE,52,4.6,4.6,100,0.00,,FEW,0.00,WeatherDisplay:10.37,2013-03-19 03:23:00,
2013-03-18 23:28:00,29.6,29.6,29.89,NE,56,6.9,6.9,100,0.00,,FEW,0.00,WeatherDisplay:10.37,2013-03-19 03:28:00,
2013-03-18 23:33:00,29.7,29.7,29.89,ENE,64,8.1,8.1,100,0.00,,FEW,0.00,WeatherDisplay:10.37,2013-03-19 03:33:00,
2013-03-18 23:38:00,29.8,29.8,29.89,NE,43,6.0,6.0,100,0.00,,FEW,0.00,WeatherDisplay:10.37,2013-03-19 03:38:00,
2013-03-18 23:43:00,29.9,29.9,29.88,ENE,57,6.0,6.0,100,0.00,,FEW,0.00,WeatherDisplay:10.37,2013-03-19 03:43:00,
2013-03-18 23:48:00,30.0,30.0,29.88,ENE,67,6.9,6.9,100,0.00,,FEW,0.00,WeatherDisplay:10.37,2013-03-19 03:48:00,
2013-03-18 23:53:00,30.2,30.2,29.87,ENE,72,6.9,6.9,100,0.00,,FEW,0.00,WeatherDisplay:10.37,2013-03-19 03:53:00,
2013-03-18 23:58:00,30.4,30.4,29.87,ENE,73,12.7,12.7,100,0.00,CLR,FEW,0.00,WeatherDisplay:10.37,2013-03-19 03:58:00,